Time;durP1;ratioP1;P1;durP2;ratioP2;P2;SDS_P1;SDS_P2;PMS_P1;PMS_P2;Temp;Humidity;BMP_temperature;BMP_pressure;BME280_temperature;BME280_humidity;BME280_pressure;Samples;Min_cycle;Max_cycle;Signal;HPM_P1;HPM_P2
2023/09/21 00:00:19;;;;;;;3.03;1.73;;;21.30;50.80;;;;;;4958605;28;20054;-54
2023/09/21 00:02:55;;;;;;;3.15;1.65;;;21.30;50.80;;;;;;4959704;28;20055;-43
2023/09/21 00:05:23;;;;;;;2.65;1.60;;;21.30;50.80;;;;;;4944031;28;20530;-46
2023/09/21 00:07:54;;;;;;;3.05;1.63;;;21.20;50.80;;;;;;4941286;28;20047;-45
2023/09/21 00:10:22;;;;;;;3.45;1.70;;;21.20;50.80;;;;;;4943657;28;20062;-46
2023/09/21 00:12:50;;;;;;;2.38;1.30;;;21.20;50.90;;;;;;4943653;28;20058;-45
2023/09/21 00:15:18;;;;;;;1.80;1.20;;;21.20;50.90;;;;;;4941865;28;20054;-45
2023/09/21 00:17:49;;;;;;;2.88;1.70;;;21.20;50.90;;;;;;4944083;28;20051;-46
2023/09/21 00:20:30;;;;;;;3.63;1.55;;;21.20;50.90;;;;;;4943523;29;20055;-48
2023/09/21 00:22:58;;;;;;;4.88;1.67;;;21.10;50.90;;;;;;4941274;28;20487;-44
2023/09/21 00:25:27;;;;;;;1.45;1.13;;;21.20;51.00;;;;;;4942932;28;20054;-45
2023/09/21 00:27:55;;;;;;;2.17;1.55;;;21.10;50.90;;;;;;4944899;28;20055;-47
2023/09/21 00:30:22;;;;;;;2.90;1.60;;;21.10;51.00;;;;;;4940499;29;20065;-45
2023/09/21 00:32:49;;;;;;;3.00;1.55;;;21.10;51.00;;;;;;4942140;29;20415;-46
2023/09/21 00:35:18;;;;;;;3.40;1.70;;;21.10;51.00;;;;;;4943617;29;20066;-46
2023/09/21 00:37:46;;;;;;;2.90;1.70;;;21.00;51.00;;;;;;4943596;28;20047;-48
2023/09/21 00:40:23;;;;;;;3.97;1.83;;;21.00;51.00;;;;;;4943547;28;20055;-49
2023/09/21 00:42:52;;;;;;;2.08;1.50;;;21.00;51.10;;;;;;4941116;28;20082;-45
2023/09/21 00:45:21;;;;;;;3.22;1.48;;;21.00;51.10;;;;;;4941001;28;20066;-46
2023/09/21 00:47:51;;;;;;;2.55;1.63;;;21.00;51.10;;;;;;4941816;28;20062;-53
2023/09/21 00:50:22;;;;;;;1.83;1.30;;;21.00;51.10;;;;;;4944508;28;20526;-49
2023/09/21 00:52:52;;;;;;;5.20;1.80;;;21.00;51.20;;;;;;4944384;28;20500;-53
2023/09/21 00:55:25;;;;;;;2.70;1.63;;;21.00;51.20;;;;;;4944899;28;20063;-55
2023/09/21 00:57:57;;;;;;;3.22;1.65;;;21.00;51.20;;;;;;4945177;28;20501;-49
2023/09/21 01:00:26;;;;;;;3.05;1.92;;;20.90;51.10;;;;;;4942956;29;20059;-56
2023/09/21 01:02:58;;;;;;;1.60;1.30;;;20.90;51.20;;;;;;4964719;23;20058;-88
2023/09/21 01:05:36;;;;;;;3.15;1.60;;;20.90;51.20;;;;;;5042375;28;20657;-54
2023/09/21 01:08:10;;;;;;;4.03;1.60;;;20.90;51.20;;;;;;5041717;28;20060;-48
2023/09/21 01:10:40;;;;;;;4.55;1.88;;;20.90;51.70;;;;;;5041698;28;20057;-50
2023/09/21 01:13:08;;;;;;;4.72;1.55;;;20.90;51.30;;;;;;5039593;28;20049;-52
2023/09/21 01:15:35;;;;;;;1.70;1.30;;;20.80;51.30;;;;;;5019183;28;20065;-49
2023/09/21 01:18:07;;;;;;;2.78;1.50;;;20.80;51.30;;;;;;5021313;28;20420;-52
2023/09/21 01:20:37;;;;;;;2.70;1.35;;;20.80;51.40;;;;;;5022689;28;20061;-53
2023/09/21 01:23:11;;;;;;;2.47;1.60;;;20.80;51.40;;;;;;5021555;28;20050;-51
2023/09/21 01:25:41;;;;;;;3.78;1.75;;;20.70;51.30;;;;;;5020710;28;20050;-53
2023/09/21 01:28:10;;;;;;;3.15;1.65;;;20.70;51.40;;;;;;5019679;28;20405;-50
2023/09/21 01:30:38;;;;;;;3.95;1.50;;;20.70;51.30;;;;;;5019339;28;20057;-49
2023/09/21 01:33:08;;;;;;;2.70;1.38;;;20.70;51.40;;;;;;5020552;28;20064;-52
2023/09/21 01:36:12;;;;;;;3.50;1.50;;;20.60;51.40;;;;;;5020814;28;20622;-49
2023/09/21 01:38:43;;;;;;;5.88;1.55;;;20.60;51.40;;;;;;5020519;28;20049;-53
2023/09/21 01:41:13;;;;;;;2.88;1.50;;;20.60;51.80;;;;;;5019516;28;20481;-54
2023/09/21 01:43:41;;;;;;;3.72;1.73;;;20.60;51.40;;;;;;5020216;28;20053;-53
2023/09/21 01:46:08;;;;;;;2.65;1.48;;;20.60;51.50;;;;;;5018848;28;20064;-47
2023/09/21 01:48:36;;;;;;;4.28;1.70;;;20.60;51.50;;;;;;5019774;28;20482;-52
2023/09/21 01:51:05;;;;;;;3.67;1.50;;;20.60;51.60;;;;;;5019865;28;20084;-54
2023/09/21 01:53:33;;;;;;;1.98;1.30;;;20.60;51.50;;;;;;5020228;28;20054;-51
2023/09/21 01:56:00;;;;;;;2.78;1.50;;;20.60;51.40;;;;;;5019367;28;20060;-48
2023/09/21 01:58:29;;;;;;;3.13;1.27;;;20.60;51.40;;;;;;5020273;28;20053;-51
2023/09/21 02:00:56;;;;;;;3.42;1.48;;;20.60;51.50;;;;;;5018578;28;20053;-50
2023/09/21 02:03:28;;;;;;;4.95;1.80;;;20.60;51.50;;;;;;5018656;28;20058;-50
2023/09/21 02:05:57;;;;;;;4.20;1.83;;;20.60;51.50;;;;;;5018987;28;20194;-50
2023/09/21 02:08:25;;;;;;;2.90;1.30;;;20.60;51.60;;;;;;5018529;28;20057;-52
2023/09/21 02:10:52;;;;;;;3.22;1.42;;;20.60;51.50;;;;;;5018257;28;20402;-48
2023/09/21 02:13:20;;;;;;;2.95;1.40;;;20.60;51.50;;;;;;5018604;28;20065;-51
2023/09/21 02:15:51;;;;;;;3.22;1.85;;;20.50;51.50;;;;;;5009069;28;20061;-53
2023/09/21 02:18:19;;;;;;;2.50;1.40;;;20.50;51.50;;;;;;5006312;28;20555;-51
2023/09/21 02:20:46;;;;;;;3.00;1.60;;;20.60;51.60;;;;;;5004221;28;20505;-55
2023/09/21 02:23:14;;;;;;;2.13;1.50;;;20.60;51.60;;;;;;5003733;28;20065;-55
2023/09/21 02:25:41;;;;;;;2.50;1.40;;;20.60;51.60;;;;;;5006314;28;20057;-55
2023/09/21 02:28:11;;;;;;;3.90;1.63;;;20.60;51.60;;;;;;5004821;28;20056;-53
2023/09/21 02:30:40;;;;;;;6.82;1.50;;;20.60;51.60;;;;;;5003601;28;20065;-55
2023/09/21 02:33:09;;;;;;;2.25;1.30;;;20.50;51.50;;;;;;5003985;28;20057;-56
2023/09/21 02:35:41;;;;;;;2.13;1.35;;;20.50;51.60;;;;;;5005256;28;20053;-56
2023/09/21 02:38:11;;;;;;;2.42;1.45;;;20.50;51.60;;;;;;5004734;28;20412;-55
2023/09/21 02:40:40;;;;;;;4.20;1.70;;;20.50;51.60;;;;;;5006286;28;20513;-54
2023/09/21 02:43:08;;;;;;;2.95;1.67;;;20.50;51.50;;;;;;5003533;28;20046;-54
2023/09/21 02:45:37;;;;;;;2.58;1.45;;;20.50;51.50;;;;;;5002771;28;20056;-55
2023/09/21 02:48:06;;;;;;;3.95;1.73;;;20.50;51.60;;;;;;5004900;28;20061;-54
2023/09/21 02:50:35;;;;;;;2.50;1.40;;;20.50;51.60;;;;;;5005321;28;20064;-53
2023/09/21 02:53:06;;;;;;;2.97;1.80;;;20.50;51.60;;;;;;5004858;28;20050;-54
2023/09/21 02:55:34;;;;;;;3.75;1.75;;;20.50;51.70;;;;;;5004078;28;20960;-55
2023/09/21 02:58:04;;;;;;;5.22;1.50;;;20.50;51.60;;;;;;5004508;28;20413;-54
2023/09/21 03:00:39;;;;;;;2.25;1.25;;;20.50;51.60;;;;;;5003579;28;20058;-52
2023/09/21 03:03:10;;;;;;;3.15;1.70;;;20.50;51.60;;;;;;5004964;28;20497;-53
2023/09/21 03:05:39;;;;;;;2.35;1.50;;;20.50;51.60;;;;;;5003999;28;20485;-54
2023/09/21 03:08:12;;;;;;;2.83;1.05;;;20.50;51.60;;;;;;5004314;28;20050;-54
2023/09/21 03:10:40;;;;;;;4.00;1.60;;;20.50;51.60;;;;;;5004131;28;20058;-51
2023/09/21 03:13:16;;;;;;;1.52;1.27;;;20.40;51.60;;;;;;5003499;28;20060;-54
2023/09/21 03:15:44;;;;;;;2.17;1.42;;;20.40;51.60;;;;;;5002624;28;20060;-56
2023/09/21 03:18:12;;;;;;;3.22;1.70;;;20.50;51.60;;;;;;5004823;28;20054;-54
2023/09/21 03:20:40;;;;;;;2.25;1.40;;;20.40;51.60;;;;;;5003790;28;20057;-53
2023/09/21 03:23:10;;;;;;;4.55;1.50;;;20.40;51.60;;;;;;5004455;28;20057;-53
2023/09/21 03:25:41;;;;;;;2.42;1.58;;;20.40;51.70;;;;;;5003581;28;20058;-54
2023/09/21 03:28:13;;;;;;;3.45;1.80;;;20.40;51.70;;;;;;5003024;28;20049;-52
2023/09/21 03:30:40;;;;;;;1.83;1.40;;;20.40;51.70;;;;;;5002055;28;20057;-54
2023/09/21 03:33:08;;;;;;;2.80;1.63;;;20.40;51.60;;;;;;5005031;28;20490;-53
2023/09/21 03:35:37;;;;;;;2.53;1.60;;;20.40;51.70;;;;;;5002556;28;20079;-54
2023/09/21 03:38:10;;;;;;;2.80;1.58;;;20.40;51.60;;;;;;5004275;28;20544;-53
2023/09/21 03:40:38;;;;;;;2.33;1.58;;;20.40;51.60;;;;;;5003114;28;20409;-54
2023/09/21 03:43:06;;;;;;;2.70;1.40;;;20.30;51.60;;;;;;5002956;28;20501;-51
2023/09/21 03:45:34;;;;;;;5.57;1.35;;;20.40;51.60;;;;;;4999683;28;20417;-52
2023/09/21 03:48:04;;;;;;;2.33;1.25;;;20.30;51.70;;;;;;5002661;28;20054;-50
2023/09/21 03:50:31;;;;;;;3.03;1.52;;;20.30;51.60;;;;;;5002443;28;20058;-53
2023/09/21 03:52:59;;;;;;;6.75;1.80;;;20.30;51.60;;;;;;5002212;28;20061;-53
2023/09/21 03:55:29;;;;;;;3.42;1.48;;;20.30;51.60;;;;;;5002349;28;20050;-55
2023/09/21 03:57:56;;;;;;;4.90;3.03;;;20.30;51.60;;;;;;5002197;28;20057;-53
2023/09/21 04:00:29;;;;;;;14.07;7.20;;;20.30;51.60;;;;;;5000212;28;20520;-52
2023/09/21 04:02:59;;;;;;;6.93;3.30;;;20.30;51.70;;;;;;5003714;28;20061;-54
2023/09/21 04:05:28;;;;;;;2.50;1.70;;;20.30;51.70;;;;;;5002772;28;20065;-54
2023/09/21 04:07:55;;;;;;;2.97;1.67;;;20.30;51.70;;;;;;5000650;28;20417;-54
2023/09/21 04:10:23;;;;;;;2.92;1.67;;;20.30;51.70;;;;;;5001817;28;20065;-56
2023/09/21 04:12:55;;;;;;;6.55;2.35;;;20.20;51.60;;;;;;5001850;28;20050;-54
2023/09/21 04:15:22;;;;;;;2.80;1.70;;;20.20;51.70;;;;;;5002305;28;20057;-55
2023/09/21 04:17:50;;;;;;;2.67;1.50;;;20.20;51.70;;;;;;5004411;28;20394;-53
2023/09/21 04:20:18;;;;;;;5.97;1.50;;;20.20;51.70;;;;;;5001839;28;20057;-54
2023/09/21 04:22:49;;;;;;;5.45;1.80;;;20.20;51.70;;;;;;5003846;28;20056;-54
2023/09/21 04:25:17;;;;;;;3.00;1.73;;;20.20;51.80;;;;;;5001647;28;20053;-53
2023/09/21 04:27:46;;;;;;;3.67;1.70;;;20.20;51.70;;;;;;5002455;28;20482;-54
2023/09/21 04:30:16;;;;;;;2.50;1.42;;;20.20;51.70;;;;;;5000126;28;20049;-55
2023/09/21 04:32:45;;;;;;;4.03;1.98;;;20.20;51.80;;;;;;5003805;28;20072;-51
2023/09/21 04:35:13;;;;;;;4.40;1.70;;;20.20;51.80;;;;;;5003592;28;20048;-55
2023/09/21 04:37:40;;;;;;;3.38;1.80;;;20.20;51.70;;;;;;5003383;28;20072;-53
2023/09/21 04:40:10;;;;;;;2.65;1.55;;;20.20;51.80;;;;;;5002504;28;20478;-53
2023/09/21 04:42:39;;;;;;;3.00;1.73;;;20.20;51.70;;;;;;5002305;28;20058;-51
2023/09/21 04:45:09;;;;;;;2.67;1.77;;;20.20;51.70;;;;;;5001166;28;20488;-54
2023/09/21 04:47:38;;;;;;;2.72;1.40;;;20.20;51.80;;;;;;5003301;28;20540;-52
2023/09/21 04:50:07;;;;;;;2.13;1.27;;;20.20;51.80;;;;;;5002081;28;20054;-54
2023/09/21 04:52:34;;;;;;;7.18;1.50;;;20.20;51.80;;;;;;5003230;28;20057;-53
2023/09/21 04:55:04;;;;;;;2.70;1.80;;;20.20;51.80;;;;;;5002845;28;20060;-53
2023/09/21 04:57:31;;;;;;;2.78;1.55;;;20.20;51.80;;;;;;5002174;28;20054;-52
2023/09/21 04:59:59;;;;;;;3.80;1.73;;;20.20;51.80;;;;;;5000694;28;20076;-54
2023/09/21 05:02:27;;;;;;;2.22;1.63;;;20.20;51.80;;;;;;5002324;28;20060;-53
2023/09/21 05:04:56;;;;;;;2.75;1.50;;;20.20;51.80;;;;;;5001557;28;20050;-53
2023/09/21 05:07:24;;;;;;;4.18;1.50;;;20.20;52.10;;;;;;5001210;28;20414;-54
2023/09/21 05:09:51;;;;;;;2.28;1.50;;;20.20;51.80;;;;;;5002098;28;20054;-52
2023/09/21 05:12:19;;;;;;;3.17;1.52;;;20.20;51.80;;;;;;5001390;28;20076;-53
2023/09/21 05:14:47;;;;;;;3.10;1.50;;;20.20;51.80;;;;;;5002062;28;20049;-55
2023/09/21 05:17:15;;;;;;;3.22;1.77;;;20.20;51.80;;;;;;5001801;28;20053;-52
2023/09/21 05:19:42;;;;;;;12.13;6.55;;;20.20;51.90;;;;;;5002478;28;20054;-54
2023/09/21 05:22:11;;;;;;;7.43;3.08;;;20.20;51.90;;;;;;5001743;28;20054;-53
2023/09/21 05:24:40;;;;;;;3.70;1.80;;;20.20;51.90;;;;;;5000867;28;20056;-54
2023/09/21 05:27:08;;;;;;;2.65;1.70;;;20.20;51.90;;;;;;5001873;28;20057;-52
2023/09/21 05:29:36;;;;;;;3.28;1.80;;;20.20;51.90;;;;;;5000971;28;20399;-53
2023/09/21 05:32:05;;;;;;;3.15;1.80;;;20.20;51.90;;;;;;5002133;28;20054;-54
2023/09/21 05:34:33;;;;;;;7.10;1.60;;;20.20;51.90;;;;;;5001415;28;20045;-54
2023/09/21 05:37:00;;;;;;;2.60;1.30;;;20.20;52.00;;;;;;5001226;28;20057;-52
2023/09/21 05:39:29;;;;;;;2.28;1.30;;;20.20;52.00;;;;;;5001921;28;20053;-53
2023/09/21 05:41:58;;;;;;;1.83;1.33;;;20.20;52.00;;;;;;5001387;28;20058;-55
2023/09/21 05:44:25;;;;;;;2.10;1.45;;;20.20;52.10;;;;;;4999458;28;20053;-55
2023/09/21 05:46:53;;;;;;;1.77;1.35;;;20.20;52.10;;;;;;5000604;28;20433;-56
2023/09/21 05:49:22;;;;;;;3.78;1.80;;;20.20;52.10;;;;;;5001339;28;20050;-53
2023/09/21 05:51:52;;;;;;;3.25;1.55;;;20.20;52.20;;;;;;5004207;28;20053;-53
2023/09/21 05:54:23;;;;;;;2.35;1.38;;;20.20;52.20;;;;;;5006197;28;20397;-53
2023/09/21 05:56:53;;;;;;;4.45;1.92;;;20.20;52.30;;;;;;5004798;28;20425;-56
2023/09/21 05:59:22;;;;;;;3.50;1.52;;;20.20;52.40;;;;;;5004446;28;20058;-55
2023/09/21 06:01:49;;;;;;;2.65;1.40;;;20.20;52.50;;;;;;5005528;28;20057;-56
2023/09/21 06:04:17;;;;;;;3.83;1.60;;;20.20;52.50;;;;;;5005288;28;20061;-57
2023/09/21 06:06:45;;;;;;;3.50;1.65;;;20.20;52.60;;;;;;5006023;28;21124;-53
2023/09/21 06:09:13;;;;;;;1.80;1.40;;;20.20;52.70;;;;;;5005012;28;20061;-57
2023/09/21 06:11:42;;;;;;;3.78;1.90;;;20.30;52.70;;;;;;5006951;28;20072;-56
2023/09/21 06:14:11;;;;;;;3.10;1.63;;;20.30;52.80;;;;;;5005354;28;20054;-52
2023/09/21 06:16:41;;;;;;;1.65;1.27;;;20.30;52.90;;;;;;5003987;28;20394;-55
2023/09/21 06:19:09;;;;;;;2.05;1.35;;;20.30;52.90;;;;;;5005096;28;20054;-53
2023/09/21 06:21:36;;;;;;;3.33;1.60;;;20.30;52.90;;;;;;5004229;28;20639;-54
2023/09/21 06:24:04;;;;;;;3.58;1.60;;;20.30;52.90;;;;;;5005616;28;20497;-54
2023/09/21 06:26:31;;;;;;;3.58;1.45;;;20.30;53.00;;;;;;5005345;28;20061;-51
2023/09/21 06:28:59;;;;;;;2.08;1.42;;;20.30;53.00;;;;;;5005572;28;20069;-48
2023/09/21 06:31:28;;;;;;;4.30;1.75;;;20.40;53.10;;;;;;5002912;28;20141;-54
2023/09/21 06:33:58;;;;;;;2.65;1.70;;;20.40;53.20;;;;;;5004953;28;20427;-54
2023/09/21 06:36:27;;;;;;;3.83;1.77;;;20.40;53.30;;;;;;5005520;28;20606;-51
2023/09/21 06:38:55;;;;;;;3.97;1.65;;;20.40;53.70;;;;;;5005700;28;20061;-52
2023/09/21 06:41:22;;;;;;;2.60;1.63;;;20.40;53.50;;;;;;5004375;28;20050;-51
2023/09/21 06:43:51;;;;;;;3.55;1.88;;;20.50;53.50;;;;;;5003898;28;20057;-52
2023/09/21 06:46:18;;;;;;;4.22;1.80;;;20.50;53.70;;;;;;5003797;28;20057;-50
2023/09/21 06:48:48;;;;;;;3.78;1.63;;;20.50;53.70;;;;;;5004662;28;20057;-56
2023/09/21 06:51:15;;;;;;;3.53;1.30;;;20.60;53.80;;;;;;5002175;28;20050;-55
2023/09/21 06:53:43;;;;;;;4.18;1.60;;;20.60;53.80;;;;;;5005325;28;20057;-53
2023/09/21 06:56:11;;;;;;;2.25;1.50;;;20.60;53.80;;;;;;5004921;28;20050;-54
2023/09/21 06:58:39;;;;;;;3.30;1.92;;;20.70;53.80;;;;;;5003335;28;20057;-53
2023/09/21 07:01:06;;;;;;;2.47;1.50;;;20.70;53.80;;;;;;5001446;28;20058;-55
2023/09/21 07:03:33;;;;;;;3.33;1.30;;;20.70;53.80;;;;;;5004327;28;20065;-54
2023/09/21 07:06:02;;;;;;;4.75;2.72;;;20.80;54.00;;;;;;5005415;28;20058;-56
2023/09/21 07:08:29;;;;;;;2.90;1.90;;;20.80;53.90;;;;;;5005688;28;20056;-55
2023/09/21 07:10:56;;;;;;;4.40;1.88;;;20.90;53.90;;;;;;5004625;28;20077;-50
2023/09/21 07:13:24;;;;;;;3.08;1.73;;;20.90;54.00;;;;;;5005349;28;20061;-54
2023/09/21 07:15:52;;;;;;;3.10;1.60;;;21.00;54.00;;;;;;5002657;28;20066;-56
2023/09/21 07:18:20;;;;;;;2.97;1.50;;;21.00;54.00;;;;;;5004166;28;20053;-51
2023/09/21 07:20:47;;;;;;;2.55;1.40;;;21.10;54.10;;;;;;5003041;28;20049;-59
2023/09/21 07:23:16;;;;;;;4.88;1.50;;;21.10;54.10;;;;;;5003603;28;20050;-55
2023/09/21 07:25:43;;;;;;;3.75;2.03;;;21.20;54.30;;;;;;5003446;28;20073;-54
2023/09/21 07:28:11;;;;;;;3.28;1.55;;;21.20;54.30;;;;;;5003349;28;20054;-56
2023/09/21 07:30:38;;;;;;;2.50;1.50;;;21.20;54.20;;;;;;5001378;28;20065;-48
2023/09/21 07:33:06;;;;;;;2.38;1.70;;;21.20;54.20;;;;;;5004341;28;20053;-55
2023/09/21 07:35:34;;;;;;;2.45;1.50;;;21.30;54.30;;;;;;5003566;28;20049;-56
2023/09/21 07:38:02;;;;;;;6.72;1.50;;;21.40;54.30;;;;;;5004448;28;20045;-55
2023/09/21 07:40:31;;;;;;;1.98;1.55;;;21.40;54.20;;;;;;5002681;28;20065;-51
2023/09/21 07:42:58;;;;;;;7.50;1.38;;;21.50;54.20;;;;;;5003270;28;20054;-52
2023/09/21 07:45:25;;;;;;;2.63;1.20;;;21.50;54.10;;;;;;5002434;28;20418;-52
2023/09/21 07:47:54;;;;;;;1.83;1.40;;;21.60;54.00;;;;;;5001655;28;20049;-53
2023/09/21 07:50:23;;;;;;;2.40;1.48;;;21.60;54.00;;;;;;5003294;28;20056;-51
2023/09/21 07:52:53;;;;;;;2.28;1.38;;;21.60;54.00;;;;;;5002430;28;20058;-54
2023/09/21 07:55:20;;;;;;;2.78;1.55;;;21.70;53.90;;;;;;5002526;28;20045;-55
2023/09/21 07:57:50;;;;;;;4.20;1.55;;;21.70;53.80;;;;;;5001841;28;20398;-55
2023/09/21 08:00:20;;;;;;;3.03;1.30;;;21.70;53.80;;;;;;5001058;28;21323;-53
2023/09/21 08:02:47;;;;;;;2.33;1.35;;;21.80;53.90;;;;;;5003384;28;20053;-52
2023/09/21 08:05:15;;;;;;;3.70;1.45;;;21.80;53.90;;;;;;5002583;28;20050;-52
2023/09/21 08:07:42;;;;;;;2.28;1.25;;;21.80;53.90;;;;;;5002582;28;20072;-53
2023/09/21 08:10:11;;;;;;;2.78;1.60;;;21.90;53.90;;;;;;5003931;28;20058;-53
2023/09/21 08:12:41;;;;;;;4.22;1.75;;;21.90;53.80;;;;;;5003545;28;20521;-50
2023/09/21 08:15:11;;;;;;;10.35;2.10;;;22.00;53.90;;;;;;5000498;28;20050;-49
2023/09/21 08:17:38;;;;;;;3.70;1.60;;;22.00;53.80;;;;;;5002342;28;20049;-54
2023/09/21 08:20:09;;;;;;;10.45;1.77;;;22.00;53.70;;;;;;5002169;28;20053;-52
2023/09/21 08:22:37;;;;;;;2.63;1.58;;;22.00;53.70;;;;;;5001013;28;20060;-53
2023/09/21 08:25:08;;;;;;;4.82;1.33;;;22.10;53.70;;;;;;5002959;28;20417;-51
2023/09/21 08:27:35;;;;;;;3.72;1.30;;;22.10;53.70;;;;;;5003082;28;20061;-50
2023/09/21 08:30:03;;;;;;;5.65;1.77;;;22.20;53.70;;;;;;5000927;28;20056;-52
2023/09/21 08:32:32;;;;;;;3.03;1.60;;;22.20;53.80;;;;;;5003113;28;20056;-55
2023/09/21 08:35:00;;;;;;;3.85;1.60;;;22.20;53.70;;;;;;5001928;28;20053;-56
2023/09/21 08:37:28;;;;;;;3.20;1.85;;;22.20;53.60;;;;;;5001561;28;20520;-52
2023/09/21 08:39:56;;;;;;;6.38;1.90;;;22.30;53.70;;;;;;5002970;28;20053;-54
2023/09/21 08:42:25;;;;;;;2.60;1.50;;;22.30;53.70;;;;;;5001589;28;20054;-47
2023/09/21 08:44:52;;;;;;;4.38;1.52;;;22.30;53.60;;;;;;5000521;28;20513;-55
2023/09/21 08:47:21;;;;;;;3.83;1.65;;;22.40;53.60;;;;;;5003106;28;20057;-57
2023/09/21 08:49:49;;;;;;;5.72;1.70;;;22.40;53.50;;;;;;5002900;28;20058;-52
2023/09/21 08:52:19;;;;;;;1.95;1.40;;;22.40;53.40;;;;;;5003907;28;20050;-60
2023/09/21 08:54:48;;;;;;;3.30;1.70;;;22.40;53.30;;;;;;5002220;28;20049;-53
2023/09/21 08:57:16;;;;;;;9.82;2.00;;;22.40;53.30;;;;;;5001321;28;20057;-54
2023/09/21 08:59:48;;;;;;;3.22;1.45;;;22.40;53.40;;;;;;5003009;28;20050;-54
2023/09/21 09:02:15;;;;;;;2.17;1.10;;;22.40;53.40;;;;;;5000607;28;20058;-53
2023/09/21 09:04:43;;;;;;;1.67;1.25;;;22.50;53.40;;;;;;5002200;28;20062;-49
2023/09/21 09:07:12;;;;;;;5.72;1.77;;;22.50;53.50;;;;;;5002610;28;20162;-55
2023/09/21 09:09:39;;;;;;;4.40;1.40;;;22.50;53.60;;;;;;5001600;28;20065;-51
2023/09/21 09:12:21;;;;;;;3.33;1.55;;;22.50;53.60;;;;;;5001369;28;20049;-56
2023/09/21 09:14:48;;;;;;;4.22;1.70;;;22.50;53.60;;;;;;5001529;28;20418;-51
2023/09/21 09:17:16;;;;;;;2.35;1.60;;;22.50;53.60;;;;;;5002599;28;21086;-50
2023/09/21 09:19:44;;;;;;;3.00;1.60;;;22.60;53.70;;;;;;5000534;28;20053;-49
2023/09/21 09:22:14;;;;;;;3.08;1.20;;;22.60;53.70;;;;;;5003110;28;20053;-55
2023/09/21 09:24:41;;;;;;;4.45;1.55;;;22.60;53.90;;;;;;5002162;28;20062;-47
2023/09/21 09:27:08;;;;;;;3.97;1.60;;;22.60;53.70;;;;;;5004440;28;20057;-59
2023/09/21 09:29:48;;;;;;;3.38;1.67;;;22.60;53.70;;;;;;5005676;28;20068;-54
2023/09/21 09:32:18;;;;;;;2.97;1.80;;;22.70;53.70;;;;;;5005131;28;20061;-54
2023/09/21 09:34:47;;;;;;;4.93;1.83;;;22.70;54.10;;;;;;5005823;28;20050;-50
2023/09/21 09:37:17;;;;;;;3.22;1.70;;;22.70;53.60;;;;;;5005767;28;20065;-48
2023/09/21 09:39:44;;;;;;;4.15;1.40;;;22.70;53.50;;;;;;5006894;28;20054;-51
2023/09/21 09:42:13;;;;;;;3.83;1.90;;;22.80;53.50;;;;;;5004350;28;20061;-49
2023/09/21 09:44:44;;;;;;;4.70;2.03;;;22.80;53.50;;;;;;5006969;28;20069;-50
2023/09/21 09:47:13;;;;;;;3.05;1.58;;;22.70;53.40;;;;;;5006337;28;20057;-50
2023/09/21 09:49:45;;;;;;;3.42;1.70;;;22.80;53.50;;;;;;5005571;28;20053;-48
2023/09/21 09:52:18;;;;;;;4.35;1.30;;;22.80;53.60;;;;;;5005220;28;20069;-51
2023/09/21 09:54:48;;;;;;;6.30;1.90;;;22.80;53.70;;;;;;5005558;28;20068;-50
2023/09/21 09:57:16;;;;;;;4.90;1.67;;;22.80;53.70;;;;;;5006178;28;20054;-55
2023/09/21 09:59:44;;;;;;;2.38;1.38;;;22.90;53.80;;;;;;5005132;28;20053;-49
2023/09/21 10:02:17;;;;;;;3.28;1.67;;;22.90;53.80;;;;;;5005144;28;20061;-50
2023/09/21 10:04:47;;;;;;;4.38;1.67;;;22.90;53.70;;;;;;5005513;28;20049;-48
2023/09/21 10:07:17;;;;;;;3.95;2.20;;;22.90;53.70;;;;;;5005585;28;20053;-50
2023/09/21 10:09:45;;;;;;;6.57;2.20;;;22.90;53.70;;;;;;5005919;28;20060;-50
2023/09/21 10:12:14;;;;;;;3.92;1.50;;;23.00;53.70;;;;;;5005319;28;20057;-49
2023/09/21 10:14:45;;;;;;;6.53;2.08;;;23.00;53.70;;;;;;5005453;28;20528;-52
2023/09/21 10:17:14;;;;;;;2.88;1.50;;;23.00;53.80;;;;;;5004214;28;20050;-52
2023/09/21 10:19:43;;;;;;;4.78;1.60;;;23.00;53.80;;;;;;5005500;28;20504;-52
2023/09/21 10:22:26;;;;;;;5.22;1.50;;;23.10;53.80;;;;;;5005143;28;20053;-48
2023/09/21 10:24:58;;;;;;;4.70;1.70;;;23.10;53.80;;;;;;5004581;28;20409;-48
2023/09/21 10:27:28;;;;;;;5.38;1.63;;;23.10;53.80;;;;;;5005980;28;20413;-50
2023/09/21 10:30:02;;;;;;;2.20;1.48;;;23.10;53.80;;;;;;5005391;28;20050;-51
2023/09/21 10:32:41;;;;;;;4.57;1.67;;;23.20;53.90;;;;;;5006378;28;20084;-51
2023/09/21 10:35:09;;;;;;;4.22;1.75;;;23.30;53.90;;;;;;5005663;28;20049;-53
2023/09/21 10:37:39;;;;;;;6.03;2.00;;;23.30;53.80;;;;;;5005899;28;20061;-51
2023/09/21 10:40:08;;;;;;;2.90;2.08;;;23.30;53.80;;;;;;5005976;28;20052;-48
2023/09/21 10:42:37;;;;;;;5.70;1.67;;;23.40;53.80;;;;;;5005479;28;20053;-52
2023/09/21 10:45:07;;;;;;;3.38;1.52;;;23.40;53.80;;;;;;5004918;28;20508;-54
2023/09/21 10:47:51;;;;;;;5.13;1.58;;;23.50;53.90;;;;;;5005748;28;20054;-53
2023/09/21 10:50:20;;;;;;;2.08;1.55;;;23.50;53.80;;;;;;5005434;28;20501;-50
2023/09/21 10:52:51;;;;;;;4.50;1.60;;;23.60;53.80;;;;;;5004947;28;20076;-51
2023/09/21 10:55:20;;;;;;;3.58;1.70;;;23.60;53.70;;;;;;5005829;28;20065;-51
2023/09/21 10:57:49;;;;;;;3.45;1.80;;;23.60;54.00;;;;;;5006023;28;20425;-51
2023/09/21 11:00:21;;;;;;;3.40;1.52;;;23.70;53.40;;;;;;5004550;28;20045;-48
2023/09/21 11:02:50;;;;;;;3.92;1.60;;;23.70;53.40;;;;;;5004791;28;20062;-51
2023/09/21 11:05:18;;;;;;;8.50;1.70;;;23.70;53.50;;;;;;5005761;28;20069;-51
2023/09/21 11:07:47;;;;;;;2.47;1.60;;;23.80;53.60;;;;;;5005515;28;20065;-54
2023/09/21 11:10:16;;;;;;;5.70;1.58;;;23.80;53.40;;;;;;5004696;28;20053;-54
2023/09/21 11:12:45;;;;;;;3.10;1.55;;;23.80;53.30;;;;;;5003844;28;20054;-51
2023/09/21 11:15:13;;;;;;;2.55;1.40;;;23.80;53.30;;;;;;5003012;28;20057;-54
2023/09/21 11:17:42;;;;;;;3.05;1.67;;;23.90;53.30;;;;;;5005055;28;20072;-54
2023/09/21 11:20:12;;;;;;;2.35;1.50;;;23.90;53.30;;;;;;5004284;28;20076;-51
2023/09/21 11:22:41;;;;;;;2.38;1.45;;;23.90;53.30;;;;;;5004723;28;20046;-52
2023/09/21 11:25:10;;;;;;;4.18;1.98;;;24.00;53.40;;;;;;5003473;28;20061;-55
2023/09/21 11:27:42;;;;;;;3.55;1.73;;;24.00;53.40;;;;;;5004875;28;20057;-54
2023/09/21 11:30:13;;;;;;;5.35;1.90;;;24.00;53.40;;;;;;5003256;28;20061;-54
2023/09/21 11:32:44;;;;;;;4.05;1.50;;;24.10;53.40;;;;;;5004748;28;20057;-53
2023/09/21 11:35:12;;;;;;;6.03;1.60;;;24.10;53.30;;;;;;5004496;28;20090;-55
2023/09/21 11:37:39;;;;;;;3.55;1.65;;;24.10;53.30;;;;;;5005019;28;20053;-54
2023/09/21 11:40:12;;;;;;;6.85;1.75;;;24.10;53.20;;;;;;5003474;28;20502;-53
2023/09/21 11:42:44;;;;;;;4.53;1.70;;;24.10;53.10;;;;;;5003782;28;20409;-52
2023/09/21 11:45:16;;;;;;;4.40;2.08;;;24.20;52.90;;;;;;5003882;28;20521;-51
2023/09/21 11:47:48;;;;;;;2.45;1.58;;;24.20;52.70;;;;;;5004347;28;20054;-54
2023/09/21 11:50:20;;;;;;;3.80;1.45;;;24.20;52.70;;;;;;5003924;28;20054;-52
2023/09/21 11:52:51;;;;;;;4.75;1.73;;;24.20;52.60;;;;;;5003759;28;20066;-48
2023/09/21 11:55:18;;;;;;;2.80;1.30;;;24.20;52.60;;;;;;5004217;28;20054;-51
2023/09/21 11:57:49;;;;;;;3.20;1.83;;;24.20;52.50;;;;;;5004008;28;20068;-51
2023/09/21 12:00:26;;;;;;;2.40;1.48;;;24.20;52.50;;;;;;5001710;28;20042;-53
2023/09/21 12:02:54;;;;;;;4.90;1.92;;;24.20;52.60;;;;;;5004340;28;20399;-55
2023/09/21 12:05:22;;;;;;;9.13;2.45;;;24.20;52.70;;;;;;5003364;28;20065;-55
2023/09/21 12:07:49;;;;;;;3.00;1.63;;;24.10;53.00;;;;;;5003782;28;20411;-56
2023/09/21 12:10:16;;;;;;;2.90;1.60;;;24.10;53.10;;;;;;5002854;28;20050;-54
2023/09/21 12:12:46;;;;;;;4.72;1.85;;;24.10;53.30;;;;;;5002068;28;20057;-54
2023/09/21 12:15:17;;;;;;;2.92;1.70;;;24.00;53.50;;;;;;5001539;28;20058;-53
2023/09/21 12:17:45;;;;;;;3.70;1.80;;;24.00;53.80;;;;;;5003060;28;20080;-53
2023/09/21 12:44:17;;;;;;;4.07;1.48;;;23.70;55.00;;;;;;5062688;28;20036;-56
2023/09/21 12:46:44;;;;;;;4.07;1.98;;;23.70;54.90;;;;;;5041560;28;20416;-53
2023/09/21 12:49:12;;;;;;;3.22;1.50;;;23.70;55.00;;;;;;5043339;28;20056;-51
2023/09/21 12:51:41;;;;;;;3.95;1.77;;;23.70;55.00;;;;;;5042142;28;20063;-54
2023/09/21 12:54:09;;;;;;;3.40;1.50;;;23.70;55.10;;;;;;5044033;28;20381;-50
2023/09/21 12:56:36;;;;;;;3.08;1.50;;;23.70;55.10;;;;;;5042613;28;20532;-53
2023/09/21 12:59:04;;;;;;;3.90;1.58;;;23.60;55.10;;;;;;5043236;28;20064;-53
2023/09/21 13:01:33;;;;;;;3.83;1.50;;;23.60;55.20;;;;;;5041324;28;20056;-48
2023/09/21 13:04:00;;;;;;;4.53;2.00;;;23.60;55.20;;;;;;5044942;28;20057;-53
2023/09/21 13:06:28;;;;;;;2.88;1.90;;;23.60;55.20;;;;;;5044184;28;20472;-52
2023/09/21 13:08:55;;;;;;;3.05;1.67;;;23.60;55.20;;;;;;5045239;28;20057;-49
2023/09/21 13:11:22;;;;;;;3.17;1.60;;;23.60;55.20;;;;;;5042850;28;20053;-54
2023/09/21 13:13:50;;;;;;;3.17;1.38;;;23.60;55.20;;;;;;5043539;28;20056;-50
2023/09/21 13:16:18;;;;;;;5.82;1.60;;;23.60;55.20;;;;;;5043970;28;20049;-47
2023/09/21 13:18:46;;;;;;;3.05;1.90;;;23.60;55.30;;;;;;5042640;28;20045;-48